Reek, Netherlands
Current Conditions -  °F | °C
As of 8:25 PM on Friday 24 Oct 2014 (Local Time) from EHVK Reporting Station
Overcast Overcast  
Wind Chill: 12°   Ceiling: 2700
Heat Index: 12°   Visibility: 6mi
Dew Point: 11°   Wind: 9mph
Humidity: 94%   Direction: 190°S
Pressure: 30.03"   Gusts: NA
Location:  51.75°N, 5.68°E
Report Text: EHVK 241825Z AUTO 19008KT 9999 FEW011 BKN027 OVC034 12/11 Q1017 REDZ BLU
Loading
Personal Weather Stations






























Interactive Weather Map
Tropical Storm Tracking
New forecast layout! Learn more

10-Day Weather Forecast

Advertisements
Track Severe Weather on mobile